createdAt,value
2022-07-29T00:02:26.514Z,5.60
2022-07-29T00:04:53.551Z,2.87
2022-07-29T00:07:20.475Z,4.20
2022-07-29T00:09:50.869Z,2.93
2022-07-29T00:12:25.634Z,3.03
2022-07-29T00:14:57.268Z,3.33
2022-07-29T00:17:24.423Z,3.40
2022-07-29T00:19:51.459Z,4.33
2022-07-29T00:22:18.666Z,2.97
2022-07-29T00:24:45.424Z,2.50
2022-07-29T00:27:12.157Z,3.50
2022-07-29T00:29:39.250Z,2.30
2022-07-29T00:32:06.388Z,2.87
2022-07-29T00:34:52.004Z,3.03
2022-07-29T00:37:18.916Z,3.53
2022-07-29T00:39:45.667Z,2.97
2022-07-29T00:42:12.561Z,3.67
2022-07-29T00:44:42.847Z,5.73
2022-07-29T00:47:11.062Z,4.87
2022-07-29T00:49:39.571Z,3.07
2022-07-29T00:52:08.018Z,5.87
2022-07-29T00:54:35.173Z,3.47
2022-07-29T00:57:07.294Z,4.13
2022-07-29T00:59:35.501Z,2.30
2022-07-29T01:02:05.661Z,4.13
2022-07-29T01:04:32.798Z,2.97
2022-07-29T01:07:01.534Z,2.73
2022-07-29T01:09:43.130Z,4.10
2022-07-29T01:12:14.340Z,3.37
2022-07-29T01:14:41.467Z,3.13
2022-07-29T01:17:28.603Z,2.70
2022-07-29T01:20:07.702Z,3.57
2022-07-29T01:22:34.545Z,2.50
2022-07-29T01:25:04.459Z,3.83
2022-07-29T01:27:42.417Z,3.87
2022-07-29T01:30:09.809Z,2.60
2022-07-29T01:32:37.892Z,3.07
2022-07-29T01:35:21.986Z,3.63
2022-07-29T01:37:55.744Z,3.33
2022-07-29T01:40:28.851Z,3.43
2022-07-29T01:42:56.781Z,5.30
2022-07-29T01:45:33.372Z,3.73
2022-07-29T01:48:00.215Z,3.47
2022-07-29T01:50:34.267Z,3.50
2022-07-29T01:53:02.058Z,2.90
2022-07-29T01:55:37.420Z,5.47
2022-07-29T01:58:05.582Z,2.87
2022-07-29T02:00:33.509Z,4.17
2022-07-29T02:03:02.114Z,3.23
2022-07-29T02:05:30.648Z,3.37
2022-07-29T02:07:58.830Z,4.93
2022-07-29T02:10:27.633Z,5.13
2022-07-29T02:12:55.593Z,3.30
2022-07-29T02:15:23.915Z,3.07
2022-07-29T02:17:54.055Z,4.83
2022-07-29T02:20:21.151Z,2.83
2022-07-29T02:22:49.585Z,2.97
2022-07-29T02:25:17.456Z,3.07
2022-07-29T02:27:45.099Z,2.50
2022-07-29T02:30:13.290Z,5.63
2022-07-29T02:32:42.249Z,3.27
2022-07-29T02:35:10.284Z,2.40
2022-07-29T02:37:37.435Z,3.90
2022-07-29T02:40:04.705Z,4.13
2022-07-29T02:42:32.078Z,4.87
2022-07-29T02:44:58.980Z,4.73
2022-07-29T02:47:41.617Z,4.33
2022-07-29T02:50:17.119Z,4.43
2022-07-29T02:52:45.170Z,4.50
2022-07-29T02:55:16.248Z,3.97
2022-07-29T02:57:55.034Z,2.80
2022-07-29T03:00:24.627Z,3.47
2022-07-29T03:02:53.212Z,3.23
2022-07-29T03:05:21.221Z,5.33
2022-07-29T03:07:56.549Z,2.90
2022-07-29T03:10:24.163Z,4.13
2022-07-29T03:12:51.481Z,2.93
2022-07-29T03:15:19.208Z,3.00
2022-07-29T03:17:46.747Z,3.03
2022-07-29T03:20:13.706Z,2.77
2022-07-29T03:22:44.607Z,4.50
2022-07-29T03:25:12.108Z,2.73
2022-07-29T03:27:39.094Z,3.93
2022-07-29T03:30:06.663Z,3.27
2022-07-29T03:32:36.278Z,3.27
2022-07-29T03:35:04.142Z,4.70
2022-07-29T03:37:31.566Z,4.87
2022-07-29T03:39:59.472Z,2.90
2022-07-29T03:42:34.044Z,4.33
2022-07-29T03:45:02.824Z,2.37
2022-07-29T03:47:50.055Z,4.43
2022-07-29T03:50:20.175Z,3.43
2022-07-29T03:52:47.591Z,2.77
2022-07-29T03:55:14.937Z,2.70
2022-07-29T03:57:42.424Z,4.77
2022-07-29T04:00:09.760Z,3.80
2022-07-29T04:02:37.072Z,2.23
2022-07-29T04:05:04.209Z,3.37
2022-07-29T04:07:30.960Z,3.57
2022-07-29T04:09:57.914Z,3.60
2022-07-29T04:12:24.728Z,2.57
2022-07-29T04:14:51.826Z,3.77
2022-07-29T04:17:18.672Z,2.50
2022-07-29T04:19:45.496Z,4.43
2022-07-29T04:22:12.369Z,3.67
2022-07-29T04:24:41.828Z,2.17
2022-07-29T04:27:10.944Z,5.37
2022-07-29T04:29:37.676Z,2.93
2022-07-29T04:32:24.639Z,5.33
2022-07-29T04:34:51.652Z,3.03
2022-07-29T04:37:18.477Z,4.80
2022-07-29T04:39:45.331Z,4.03
2022-07-29T04:42:12.118Z,3.67
2022-07-29T04:44:42.849Z,5.20
2022-07-29T04:47:10.223Z,2.77
2022-07-29T04:49:39.953Z,4.67
2022-07-29T04:52:07.109Z,2.50
2022-07-29T04:54:34.413Z,4.00
2022-07-29T04:57:01.246Z,3.73
2022-07-29T04:59:28.144Z,3.93
2022-07-29T05:01:55.108Z,9.93
2022-07-29T05:04:22.043Z,3.23
2022-07-29T05:06:51.821Z,3.23
2022-07-29T05:09:18.727Z,4.53
2022-07-29T05:11:45.534Z,5.53
2022-07-29T05:14:12.605Z,4.27
2022-07-29T05:16:41.103Z,4.67
2022-07-29T05:19:13.700Z,5.63
2022-07-29T05:21:41.210Z,3.70
2022-07-29T05:24:08.948Z,3.97
2022-07-29T05:26:35.696Z,4.47
2022-07-29T05:29:02.480Z,2.40
2022-07-29T05:31:29.372Z,5.50
2022-07-29T05:33:56.159Z,4.23
2022-07-29T05:36:23.096Z,4.23
2022-07-29T05:38:50.022Z,5.33
2022-07-29T05:41:17.549Z,6.77
2022-07-29T05:43:44.433Z,5.30
2022-07-29T05:46:11.421Z,6.43
2022-07-29T05:48:38.543Z,6.03
2022-07-29T05:51:05.985Z,4.20
2022-07-29T05:53:33.120Z,6.37
2022-07-29T05:56:03.841Z,4.23
2022-07-29T05:58:30.673Z,4.67
2022-07-29T06:01:00.251Z,4.47
2022-07-29T06:03:27.687Z,4.07
2022-07-29T06:05:54.588Z,3.33
2022-07-29T06:08:21.854Z,5.53
2022-07-29T06:10:48.872Z,3.43
2022-07-29T06:13:18.779Z,6.50
2022-07-29T06:15:45.723Z,4.50
2022-07-29T06:18:14.213Z,5.07
2022-07-29T06:20:41.425Z,2.70
2022-07-29T06:23:08.634Z,3.03
2022-07-29T06:25:37.619Z,3.07
2022-07-29T06:28:04.939Z,5.20
2022-07-29T06:30:31.798Z,3.47
2022-07-29T06:32:58.753Z,4.43
2022-07-29T06:35:38.591Z,5.10
2022-07-29T06:38:31.492Z,3.83
2022-07-29T06:41:03.657Z,7.10
2022-07-29T06:43:33.047Z,4.40
2022-07-29T06:46:02.438Z,3.13
2022-07-29T06:48:29.988Z,4.60
2022-07-29T06:50:56.875Z,4.40
2022-07-29T06:53:23.814Z,6.27
2022-07-29T06:55:51.025Z,3.50
2022-07-29T06:58:18.950Z,3.57
2022-07-29T07:00:55.873Z,3.67
2022-07-29T07:03:23.580Z,4.20
2022-07-29T07:05:50.624Z,4.80
2022-07-29T07:08:17.419Z,3.30
2022-07-29T07:10:44.313Z,3.13
2022-07-29T07:13:11.112Z,3.33
2022-07-29T07:15:39.115Z,3.77
2022-07-29T07:18:07.020Z,5.93
2022-07-29T07:20:34.387Z,2.93
2022-07-29T07:23:01.330Z,3.23
2022-07-29T07:25:28.221Z,3.50
2022-07-29T07:27:55.049Z,4.30
2022-07-29T07:30:22.250Z,4.90
2022-07-29T07:32:49.348Z,3.37
2022-07-29T07:35:16.125Z,5.33
2022-07-29T07:37:42.963Z,4.27
2022-07-29T07:40:10.729Z,5.47
2022-07-29T07:42:37.674Z,5.40
2022-07-29T07:45:16.268Z,4.30
2022-07-29T07:47:43.606Z,4.93
2022-07-29T07:50:15.113Z,4.03
2022-07-29T07:52:48.897Z,6.73
2022-07-29T07:55:16.036Z,5.60
2022-07-29T07:57:42.873Z,3.90
2022-07-29T08:00:10.035Z,3.13
2022-07-29T08:02:40.073Z,5.07
2022-07-29T08:05:08.437Z,5.07
2022-07-29T08:07:39.952Z,3.17
2022-07-29T08:10:07.084Z,4.63
2022-07-29T08:12:33.986Z,4.57
2022-07-29T08:15:00.842Z,4.47
2022-07-29T08:17:27.727Z,4.80
2022-07-29T08:19:54.608Z,3.70
2022-07-29T08:22:21.596Z,4.63
2022-07-29T08:24:53.377Z,3.53
2022-07-29T08:27:42.562Z,5.93
2022-07-29T08:30:08.723Z,3.80
2022-07-29T08:35:23.021Z,3.83
2022-07-29T08:37:50.105Z,4.73
2022-07-29T08:40:16.986Z,7.43
2022-07-29T08:42:43.796Z,3.53
2022-07-29T08:45:10.771Z,3.77
2022-07-29T08:47:40.539Z,3.87
2022-07-29T08:50:08.133Z,4.37
2022-07-29T08:52:36.994Z,3.10
2022-07-29T08:55:04.991Z,4.00
2022-07-29T08:57:32.368Z,4.27
2022-07-29T09:00:07.853Z,4.13
2022-07-29T09:02:43.130Z,5.10
2022-07-29T09:05:13.738Z,3.57
2022-07-29T09:07:40.890Z,3.90
2022-07-29T09:10:08.140Z,4.37
2022-07-29T09:12:37.942Z,3.83
2022-07-29T09:15:05.549Z,4.90
2022-07-29T09:17:49.308Z,4.43
2022-07-29T09:20:17.767Z,4.07
2022-07-29T09:22:48.197Z,3.38
2022-07-29T09:25:15.504Z,4.50
2022-07-29T09:27:42.538Z,3.70
2022-07-29T09:30:13.599Z,4.40
2022-07-29T09:32:56.701Z,5.07
2022-07-29T09:35:24.868Z,3.55
2022-07-29T09:37:51.961Z,6.32
2022-07-29T09:40:21.380Z,4.82
2022-07-29T09:42:48.214Z,3.45
2022-07-29T09:45:35.285Z,4.00
2022-07-29T09:48:14.187Z,3.88
2022-07-29T09:50:42.204Z,3.22
2022-07-29T09:53:12.326Z,4.50
2022-07-29T09:55:52.050Z,3.42
2022-07-29T09:58:20.190Z,3.58
2022-07-29T10:00:47.776Z,4.28
2022-07-29T10:03:15.391Z,3.78
2022-07-29T10:05:43.080Z,4.00
2022-07-29T10:08:10.743Z,6.47
2022-07-29T10:10:38.987Z,4.63
2022-07-29T10:13:10.987Z,4.70
2022-07-29T10:15:45.213Z,4.35
2022-07-29T10:18:12.890Z,3.93
2022-07-29T10:20:40.422Z,4.13
2022-07-29T10:23:07.225Z,3.65
2022-07-29T10:25:34.025Z,3.67
2022-07-29T10:28:00.842Z,4.35
2022-07-29T10:30:27.844Z,4.30
2022-07-29T10:33:13.186Z,5.17
2022-07-29T10:35:39.976Z,3.23
2022-07-29T10:38:06.819Z,3.60
2022-07-29T10:41:08.542Z,4.45
2022-07-29T10:43:38.780Z,5.47
2022-07-29T10:46:07.459Z,4.03
2022-07-29T10:48:36.005Z,4.00
2022-07-29T10:51:05.444Z,6.40
2022-07-29T10:53:48.998Z,4.00
2022-07-29T10:56:26.863Z,5.20
2022-07-29T10:59:36.550Z,6.40
2022-07-29T11:02:42.682Z,3.63
2022-07-29T11:05:13.600Z,3.75
2022-07-29T11:08:00.365Z,4.90
2022-07-29T11:10:31.433Z,4.70
2022-07-29T11:12:59.718Z,4.90
2022-07-29T11:15:28.688Z,5.13
2022-07-29T11:17:59.480Z,8.07
2022-07-29T11:20:33.426Z,4.03
2022-07-29T11:23:00.907Z,4.05
2022-07-29T11:25:50.123Z,4.93
2022-07-29T11:28:22.967Z,3.85
2022-07-29T11:30:52.995Z,4.63
2022-07-29T11:36:17.146Z,5.03
2022-07-29T11:38:45.509Z,4.63
2022-07-29T11:41:18.505Z,4.82
2022-07-29T11:43:50.691Z,4.07
2022-07-29T11:46:38.778Z,4.50
2022-07-29T11:49:09.218Z,4.40
2022-07-29T11:51:48.453Z,3.88
2022-07-29T11:54:17.964Z,3.70
2022-07-29T11:56:54.403Z,3.80
2022-07-29T11:59:22.094Z,4.05
2022-07-29T12:02:12.137Z,4.15
2022-07-29T12:04:52.127Z,5.95
2022-07-29T12:07:20.188Z,4.03
2022-07-29T12:09:52.698Z,3.72
2022-07-29T12:12:24.539Z,4.32
2022-07-29T12:14:53.237Z,4.07
2022-07-29T12:17:30.523Z,4.03
2022-07-29T12:19:59.238Z,4.05
2022-07-29T12:22:30.863Z,4.07
2022-07-29T12:25:30.032Z,3.75
2022-07-29T12:27:58.303Z,3.88
2022-07-29T12:30:34.684Z,3.20
2022-07-29T12:33:01.630Z,4.82
2022-07-29T12:35:28.704Z,4.07
2022-07-29T12:37:55.819Z,4.28
2022-07-29T12:40:23.866Z,3.95
2022-07-29T12:43:26.068Z,5.05
2022-07-29T12:45:54.540Z,4.45
2022-07-29T12:48:38.025Z,3.47
2022-07-29T12:51:05.492Z,3.95
2022-07-29T12:53:32.430Z,4.25
2022-07-29T12:56:07.983Z,4.07
2022-07-29T12:58:43.890Z,3.83
2022-07-29T13:01:16.919Z,4.00
2022-07-29T13:03:44.454Z,4.07
2022-07-29T13:06:28.447Z,5.40
2022-07-29T13:09:23.358Z,4.82
2022-07-29T13:11:51.689Z,3.35
2022-07-29T13:14:30.769Z,4.13
2022-07-29T13:17:14.951Z,3.53
2022-07-29T13:19:44.961Z,3.70
2022-07-29T13:22:14.098Z,4.68
2022-07-29T13:25:00.448Z,5.18
2022-07-29T13:27:28.457Z,4.05
2022-07-29T13:29:57.464Z,3.97
2022-07-29T13:32:28.590Z,3.60
2022-07-29T13:34:56.680Z,3.35
2022-07-29T13:37:23.739Z,3.22
2022-07-29T13:39:53.092Z,4.22
2022-07-29T13:42:21.564Z,4.35
2022-07-29T13:44:51.802Z,4.13
2022-07-29T13:47:22.941Z,3.00
2022-07-29T13:50:03.392Z,2.87
2022-07-29T13:52:34.593Z,3.87
2022-07-29T13:55:02.333Z,8.83
2022-07-29T13:57:29.574Z,5.07
2022-07-29T13:59:56.982Z,3.67
2022-07-29T14:02:25.592Z,8.63
2022-07-29T14:04:53.756Z,5.53
2022-07-29T14:07:20.800Z,3.80
2022-07-29T14:09:47.579Z,3.70
2022-07-29T14:12:14.362Z,2.40
2022-07-29T14:14:42.398Z,2.60
2022-07-29T14:17:10.151Z,2.30
2022-07-29T14:19:38.497Z,2.50
2022-07-29T14:22:07.303Z,14.70
2022-07-29T14:24:37.045Z,11.73
2022-07-29T14:27:08.194Z,3.57
2022-07-29T14:29:38.201Z,4.03
2022-07-29T14:32:06.893Z,5.07
2022-07-29T14:34:34.621Z,3.90
2022-07-29T14:37:01.602Z,3.97
2022-07-29T14:39:32.008Z,5.17
2022-07-29T14:41:59.403Z,4.43
2022-07-29T14:44:31.850Z,4.93
2022-07-29T14:47:00.487Z,3.60
2022-07-29T14:49:27.808Z,3.93
2022-07-29T14:51:54.794Z,3.40
2022-07-29T14:54:21.603Z,4.50
2022-07-29T14:56:50.261Z,4.53
2022-07-29T14:59:17.680Z,3.90
2022-07-29T15:01:44.494Z,4.07
2022-07-29T15:04:12.379Z,3.43
2022-07-29T15:06:39.740Z,5.87
2022-07-29T15:09:06.505Z,4.07
2022-07-29T15:11:38.180Z,3.97
2022-07-29T15:14:06.571Z,4.47
2022-07-29T15:16:33.612Z,5.00
2022-07-29T15:19:01.388Z,6.90
2022-07-29T15:21:28.618Z,9.17
2022-07-29T15:23:55.508Z,6.17
2022-07-29T15:26:22.383Z,4.40
2022-07-29T15:28:49.228Z,4.13
2022-07-29T15:31:16.131Z,3.80
2022-07-29T15:33:43.114Z,4.20
2022-07-29T15:36:11.648Z,3.87
2022-07-29T15:38:41.792Z,3.30
2022-07-29T15:41:08.915Z,4.10
2022-07-29T15:43:36.374Z,4.70
2022-07-29T15:46:21.947Z,4.90
2022-07-29T15:48:48.858Z,4.20
2022-07-29T15:51:15.721Z,4.30
2022-07-29T15:53:42.463Z,4.03
2022-07-29T15:56:09.268Z,5.60
2022-07-29T15:58:36.076Z,4.70
2022-07-29T16:01:02.892Z,5.37
2022-07-29T16:03:29.902Z,7.57
2022-07-29T16:05:57.269Z,6.77
2022-07-29T16:08:24.079Z,7.90
2022-07-29T16:10:50.894Z,5.80
2022-07-29T16:13:18.908Z,7.70
2022-07-29T16:16:06.622Z,7.20
2022-07-29T16:18:33.514Z,8.07
2022-07-29T16:21:00.452Z,6.63
2022-07-29T16:23:27.377Z,5.63
2022-07-29T16:26:01.676Z,7.90
2022-07-29T16:28:29.015Z,6.70
2022-07-29T16:30:55.850Z,6.73
2022-07-29T16:33:23.507Z,6.23
2022-07-29T16:35:50.661Z,5.73
2022-07-29T16:38:17.770Z,5.47
2022-07-29T16:40:44.531Z,6.00
2022-07-29T16:43:11.371Z,6.93
2022-07-29T16:45:45.352Z,5.10
2022-07-29T16:48:14.076Z,4.53
2022-07-29T16:50:41.349Z,5.73
2022-07-29T16:53:10.497Z,5.13
2022-07-29T16:55:37.262Z,5.63
2022-07-29T16:58:04.001Z,5.23
2022-07-29T17:00:31.109Z,5.47
2022-07-29T17:02:59.860Z,5.43
2022-07-29T17:05:27.397Z,5.23
2022-07-29T17:07:54.361Z,4.80
2022-07-29T17:10:22.229Z,4.73
2022-07-29T17:12:49.235Z,4.17
2022-07-29T17:15:18.444Z,5.33
2022-07-29T17:17:55.508Z,5.23
2022-07-29T17:20:23.782Z,4.47
2022-07-29T17:22:50.507Z,4.07
2022-07-29T17:25:21.051Z,4.30
2022-07-29T17:27:49.616Z,5.13
2022-07-29T17:30:16.547Z,5.53
2022-07-29T17:32:43.404Z,4.63
2022-07-29T17:35:29.065Z,4.73
2022-07-29T17:37:56.004Z,4.73
2022-07-29T17:40:22.858Z,4.23
2022-07-29T17:42:50.143Z,6.05
2022-07-29T17:45:17.047Z,7.40
2022-07-29T17:47:45.053Z,5.00
2022-07-29T17:50:11.924Z,4.23
2022-07-29T17:52:39.179Z,6.37
2022-07-29T17:55:06.995Z,4.00
2022-07-29T17:57:34.126Z,3.63
2022-07-29T18:00:01.011Z,3.03
2022-07-29T18:02:28.506Z,5.10
2022-07-29T18:04:57.114Z,4.20
2022-07-29T18:07:24.304Z,6.10
2022-07-29T18:09:51.240Z,4.07
2022-07-29T18:12:18.160Z,4.83
2022-07-29T18:14:44.961Z,5.20
2022-07-29T18:17:11.875Z,5.23
2022-07-29T18:19:38.914Z,4.27
2022-07-29T18:22:07.340Z,3.70
2022-07-29T18:24:35.681Z,3.10
2022-07-29T18:27:02.778Z,3.17
2022-07-29T18:29:30.329Z,4.80
2022-07-29T18:31:58.873Z,3.27
2022-07-29T18:34:25.711Z,3.30
2022-07-29T18:36:52.566Z,3.70
2022-07-29T18:39:21.246Z,3.70
2022-07-29T18:41:51.630Z,3.63
2022-07-29T18:44:21.825Z,4.10
2022-07-29T18:46:49.940Z,3.30
2022-07-29T18:49:16.841Z,3.03
2022-07-29T18:51:43.627Z,3.63
2022-07-29T18:54:10.488Z,4.40
2022-07-29T18:56:38.597Z,4.50
2022-07-29T18:59:05.622Z,3.40
2022-07-29T19:01:32.476Z,4.00
2022-07-29T19:03:59.623Z,5.20
2022-07-29T19:06:26.604Z,3.40
2022-07-29T19:08:53.590Z,3.87
2022-07-29T19:11:20.624Z,3.77
2022-07-29T19:13:47.473Z,3.80
2022-07-29T19:16:14.614Z,3.93
2022-07-29T19:18:43.034Z,6.37
2022-07-29T19:21:10.273Z,4.47
2022-07-29T19:24:01.548Z,4.33
2022-07-29T19:26:24.123Z,4.37
2022-07-29T19:28:53.446Z,4.73
2022-07-29T19:31:20.483Z,4.10
2022-07-29T19:33:47.500Z,4.90
2022-07-29T19:36:14.272Z,5.60
2022-07-29T19:38:41.284Z,6.47
2022-07-29T19:41:08.522Z,4.67
2022-07-29T19:43:49.911Z,5.23
2022-07-29T19:46:19.922Z,4.90
2022-07-29T19:48:46.927Z,3.95
2022-07-29T19:51:13.981Z,4.10
2022-07-29T19:53:40.847Z,4.30
2022-07-29T19:56:11.878Z,3.80
2022-07-29T19:58:40.534Z,4.43
2022-07-29T20:01:10.206Z,5.03
2022-07-29T20:03:39.829Z,5.07
2022-07-29T20:06:07.493Z,5.20
2022-07-29T20:08:34.611Z,5.63
2022-07-29T20:11:01.627Z,5.33
2022-07-29T20:13:31.183Z,6.30
2022-07-29T20:15:58.273Z,5.57
2022-07-29T20:18:25.251Z,5.93
2022-07-29T20:20:53.123Z,7.20
2022-07-29T20:23:22.205Z,6.97
2022-07-29T20:25:49.301Z,6.97
2022-07-29T20:28:16.210Z,6.17
2022-07-29T20:30:43.140Z,7.17
2022-07-29T20:33:10.088Z,7.33
2022-07-29T20:35:37.059Z,6.40
2022-07-29T20:38:04.314Z,6.90
2022-07-29T20:40:31.143Z,6.53
2022-07-29T20:42:58.108Z,7.10
2022-07-29T20:45:25.138Z,7.63
2022-07-29T20:47:52.689Z,7.87
2022-07-29T20:50:20.478Z,7.10
2022-07-29T20:52:51.004Z,7.17
2022-07-29T20:55:17.858Z,7.37
2022-07-29T20:57:44.805Z,7.47
2022-07-29T21:00:11.906Z,7.37
2022-07-29T21:02:38.889Z,7.70
2022-07-29T21:05:06.142Z,7.00
2022-07-29T21:07:32.920Z,7.40
2022-07-29T21:09:59.739Z,7.07
2022-07-29T21:12:26.975Z,8.20
2022-07-29T21:14:54.579Z,8.00
2022-07-29T21:17:22.653Z,7.97
2022-07-29T21:19:52.515Z,7.80
2022-07-29T21:22:22.052Z,7.83
2022-07-29T21:24:49.599Z,8.13
2022-07-29T21:27:38.335Z,8.27
2022-07-29T21:30:06.831Z,8.20
2022-07-29T21:32:33.747Z,8.10
2022-07-29T21:35:00.803Z,7.77
2022-07-29T21:37:27.997Z,8.60
2022-07-29T21:39:54.788Z,9.07
2022-07-29T21:42:21.749Z,8.80
2022-07-29T21:44:48.660Z,8.40
2022-07-29T21:47:15.504Z,8.87
2022-07-29T21:49:42.305Z,7.43
2022-07-29T21:52:09.147Z,8.30
2022-07-29T21:54:35.940Z,8.30
2022-07-29T21:57:03.476Z,7.40
2022-07-29T21:59:30.536Z,8.50
2022-07-29T22:02:00.785Z,7.00
2022-07-29T22:04:30.918Z,7.20
2022-07-29T22:06:58.628Z,8.23
2022-07-29T22:09:26.012Z,8.10
2022-07-29T22:11:52.854Z,8.30
2022-07-29T22:14:19.815Z,7.87
2022-07-29T22:16:46.763Z,7.07
2022-07-29T22:19:14.103Z,7.03
2022-07-29T22:21:41.697Z,7.83
2022-07-29T22:24:09.808Z,7.50
2022-07-29T22:26:37.059Z,8.43
2022-07-29T22:29:03.831Z,7.73
2022-07-29T22:31:30.691Z,8.87
2022-07-29T22:33:57.520Z,9.70
2022-07-29T22:36:24.913Z,10.73
2022-07-29T22:38:52.172Z,11.50
2022-07-29T22:41:19.071Z,12.17
2022-07-29T22:43:45.951Z,12.07
2022-07-29T22:46:12.882Z,11.40
2022-07-29T22:48:39.732Z,11.47
2022-07-29T22:51:06.620Z,12.77
2022-07-29T22:53:33.415Z,13.63
2022-07-29T22:56:00.231Z,11.73
2022-07-29T22:58:27.446Z,12.13
2022-07-29T23:00:54.351Z,11.07
2022-07-29T23:03:21.740Z,12.40
2022-07-29T23:05:50.691Z,10.87
2022-07-29T23:08:18.591Z,11.23
2022-07-29T23:10:45.540Z,11.07
2022-07-29T23:13:12.414Z,10.13
2022-07-29T23:15:39.281Z,9.80
2022-07-29T23:18:06.067Z,10.73
2022-07-29T23:20:32.921Z,11.10
2022-07-29T23:22:59.774Z,10.70
2022-07-29T23:25:26.699Z,10.33
2022-07-29T23:27:53.475Z,10.00
2022-07-29T23:30:20.476Z,10.80
2022-07-29T23:32:47.495Z,9.93
2022-07-29T23:35:14.326Z,10.23
2022-07-29T23:37:41.194Z,9.37
2022-07-29T23:40:13.616Z,9.63
2022-07-29T23:42:42.241Z,11.30
2022-07-29T23:45:09.876Z,11.13
2022-07-29T23:47:36.747Z,10.97
2022-07-29T23:50:04.133Z,9.90
2022-07-29T23:52:30.880Z,10.60
2022-07-29T23:55:37.014Z,10.30
2022-07-29T23:57:44.856Z,8.70
